createdAt,value
2024-01-15T00:00:06.210Z,15.57
2024-01-15T00:01:09.308Z,13.73
2024-01-15T00:02:13.217Z,13.29
2024-01-15T00:03:15.289Z,15.00
2024-01-15T00:04:17.497Z,15.21
2024-01-15T00:05:19.677Z,13.19
2024-01-15T00:06:23.993Z,14.05
2024-01-15T00:07:26.223Z,13.95
2024-01-15T00:08:28.140Z,13.80
2024-01-15T00:09:30.121Z,14.33
2024-01-15T00:10:32.635Z,13.61
2024-01-15T00:11:35.419Z,12.95
2024-01-15T00:12:37.455Z,12.47
2024-01-15T00:13:39.959Z,13.39
2024-01-15T00:14:41.908Z,13.19
2024-01-15T00:15:43.928Z,14.51
2024-01-15T00:16:47.263Z,13.81
2024-01-15T00:17:49.328Z,13.81
2024-01-15T00:18:51.570Z,13.29
2024-01-15T00:19:54.099Z,13.33
2024-01-15T00:20:56.716Z,13.70
2024-01-15T00:21:58.802Z,12.64
2024-01-15T00:23:00.826Z,12.33
2024-01-15T00:24:03.203Z,12.06
2024-01-15T00:25:05.785Z,12.77
2024-01-15T00:26:10.634Z,12.11
2024-01-15T00:27:12.449Z,13.35
2024-01-15T00:28:14.575Z,11.70
2024-01-15T00:29:16.625Z,13.22
2024-01-15T00:30:19.307Z,12.46
2024-01-15T00:31:21.555Z,12.02
2024-01-15T00:32:23.841Z,12.88
2024-01-15T00:33:25.969Z,11.48
2024-01-15T00:34:28.322Z,11.33
2024-01-15T00:35:30.461Z,12.19
2024-01-15T00:36:32.772Z,10.83
2024-01-15T00:37:38.472Z,12.11
2024-01-15T00:38:40.438Z,12.34
2024-01-15T00:39:42.657Z,11.40
2024-01-15T00:40:44.967Z,11.85
2024-01-15T00:41:46.985Z,12.52
2024-01-15T00:42:49.218Z,10.89
2024-01-15T00:43:51.235Z,11.40
2024-01-15T00:44:53.323Z,11.01
2024-01-15T00:45:55.367Z,11.51
2024-01-15T00:46:57.545Z,12.44
2024-01-15T00:47:59.791Z,11.98
2024-01-15T00:49:01.913Z,13.21
2024-01-15T00:50:04.446Z,12.79
2024-01-15T00:51:07.116Z,12.33
2024-01-15T00:52:09.077Z,11.67
2024-01-15T00:53:11.003Z,11.94
2024-01-15T00:54:14.160Z,11.78
2024-01-15T00:55:17.270Z,12.38
2024-01-15T00:56:20.016Z,11.05
2024-01-15T00:57:22.221Z,11.35
2024-01-15T00:58:24.479Z,11.88
2024-01-15T00:59:26.614Z,10.87
2024-01-15T01:00:29.128Z,10.42
2024-01-15T01:01:32.348Z,11.52
2024-01-15T01:02:34.563Z,11.74
2024-01-15T01:03:37.829Z,11.22
2024-01-15T01:04:40.693Z,11.90
2024-01-15T01:05:43.141Z,11.89
2024-01-15T01:06:45.454Z,10.69
2024-01-15T01:07:47.719Z,10.91
2024-01-15T01:08:49.742Z,11.49
2024-01-15T01:09:53.165Z,11.69
2024-01-15T01:10:57.473Z,12.05
2024-01-15T01:11:59.853Z,12.10
2024-01-15T01:13:06.313Z,11.11
2024-01-15T01:14:08.678Z,11.48
2024-01-15T01:15:11.274Z,11.86
2024-01-15T01:16:14.455Z,11.45
2024-01-15T01:17:16.410Z,11.99
2024-01-15T01:18:20.935Z,11.69
2024-01-15T01:19:23.534Z,11.96
2024-01-15T01:20:26.043Z,12.46
2024-01-15T01:21:28.260Z,11.53
2024-01-15T01:22:31.116Z,12.63
2024-01-15T01:23:33.410Z,13.09
2024-01-15T01:24:35.344Z,12.45
2024-01-15T01:25:37.306Z,12.09
2024-01-15T01:26:41.218Z,12.52
2024-01-15T01:27:43.472Z,12.29
2024-01-15T01:28:45.532Z,11.87
2024-01-15T01:29:47.539Z,12.59
2024-01-15T01:30:49.929Z,10.94
2024-01-15T01:31:52.326Z,11.93
2024-01-15T01:32:54.449Z,13.03
2024-01-15T01:33:56.678Z,11.83
2024-01-15T01:34:58.805Z,12.20
2024-01-15T01:36:00.754Z,11.81
2024-01-15T01:37:02.669Z,13.04
2024-01-15T01:38:04.660Z,12.91
2024-01-15T01:39:06.624Z,13.02
2024-01-15T01:40:09.873Z,13.43
2024-01-15T01:41:11.883Z,11.95
2024-01-15T01:42:14.052Z,12.01
2024-01-15T01:43:16.093Z,13.09
2024-01-15T01:44:18.027Z,12.50
2024-01-15T01:45:20.044Z,13.13
2024-01-15T01:46:22.771Z,13.04
2024-01-15T01:47:25.203Z,12.22
2024-01-15T01:48:28.103Z,11.46
2024-01-15T01:49:30.820Z,11.33
2024-01-15T01:50:33.887Z,11.94
2024-01-15T01:51:36.415Z,11.68
2024-01-15T01:52:40.139Z,11.76
2024-01-15T01:53:42.180Z,12.54
2024-01-15T01:54:44.383Z,12.67
2024-01-15T01:55:48.435Z,12.91
2024-01-15T01:56:52.964Z,11.39
2024-01-15T01:57:56.342Z,11.99
2024-01-15T01:58:59.100Z,13.14
2024-01-15T02:00:03.790Z,12.23
2024-01-15T02:01:07.812Z,12.16
2024-01-15T02:02:11.758Z,12.21
2024-01-15T02:03:14.863Z,13.25
2024-01-15T02:04:21.660Z,13.22
2024-01-15T02:05:24.900Z,15.87
2024-01-15T02:06:28.969Z,13.99
2024-01-15T02:07:34.656Z,13.58
2024-01-15T02:08:37.240Z,11.87
2024-01-15T02:09:39.177Z,12.33
2024-01-15T02:10:41.247Z,12.57
2024-01-15T02:11:43.457Z,11.93
2024-01-15T02:12:45.647Z,12.26
2024-01-15T02:13:48.362Z,11.36
2024-01-15T02:14:51.118Z,11.18
2024-01-15T02:15:54.338Z,11.39
2024-01-15T02:16:56.769Z,11.13
2024-01-15T02:18:07.345Z,11.75
2024-01-15T02:19:17.645Z,11.07
2024-01-15T02:20:23.228Z,12.82
2024-01-15T02:21:25.358Z,11.97
2024-01-15T02:22:27.308Z,10.76
2024-01-15T02:23:29.423Z,11.69
2024-01-15T02:24:31.781Z,10.65
2024-01-15T02:25:38.054Z,11.84
2024-01-15T02:26:40.340Z,11.86
2024-01-15T02:27:44.418Z,11.43
2024-01-15T02:28:46.601Z,10.95
2024-01-15T02:29:49.132Z,11.79
2024-01-15T02:30:51.635Z,10.19
2024-01-15T02:31:53.770Z,11.79
2024-01-15T02:32:55.818Z,11.20
2024-01-15T02:33:58.363Z,10.65
2024-01-15T02:35:00.806Z,11.21
2024-01-15T02:36:03.307Z,10.87
2024-01-15T02:37:05.397Z,10.57
2024-01-15T02:38:08.126Z,10.23
2024-01-15T02:39:10.194Z,9.39
2024-01-15T02:40:12.572Z,10.17
2024-01-15T02:41:14.475Z,10.91
2024-01-15T02:42:16.448Z,10.99
2024-01-15T02:43:18.435Z,11.23
2024-01-15T02:44:20.519Z,12.51
2024-01-15T02:45:23.184Z,12.79
2024-01-15T02:46:25.933Z,14.03
2024-01-15T02:47:27.882Z,12.65
2024-01-15T02:48:29.957Z,12.72
2024-01-15T02:49:31.996Z,12.43
2024-01-15T02:50:34.475Z,11.89
2024-01-15T02:51:36.530Z,11.95
2024-01-15T02:52:38.522Z,11.49
2024-01-15T02:53:40.497Z,11.31
2024-01-15T02:54:43.046Z,11.87
2024-01-15T02:55:45.032Z,11.27
2024-01-15T02:56:47.316Z,11.33
2024-01-15T02:57:49.461Z,10.96
2024-01-15T02:58:51.529Z,10.27
2024-01-15T02:59:53.558Z,10.81
2024-01-15T03:00:55.966Z,11.15
2024-01-15T03:01:58.464Z,10.57
2024-01-15T03:03:00.637Z,10.59
2024-01-15T03:04:03.628Z,10.61
2024-01-15T03:05:07.574Z,10.31
2024-01-15T03:06:11.491Z,10.09
2024-01-15T03:07:14.193Z,11.39
2024-01-15T03:08:16.212Z,10.54
2024-01-15T03:09:18.270Z,10.29
2024-01-15T03:10:21.935Z,10.55
2024-01-15T03:11:24.065Z,11.27
2024-01-15T03:12:26.043Z,10.75
2024-01-15T03:13:28.253Z,10.66
2024-01-15T03:14:30.309Z,10.63
2024-01-15T03:15:32.277Z,11.13
2024-01-15T03:16:34.364Z,9.93
2024-01-15T03:17:36.377Z,11.15
2024-01-15T03:18:38.404Z,11.50
2024-01-15T03:19:40.453Z,11.10
2024-01-15T03:20:43.534Z,10.53
2024-01-15T03:21:45.577Z,10.16
2024-01-15T03:22:47.578Z,10.86
2024-01-15T03:23:49.647Z,10.31
2024-01-15T03:24:52.868Z,10.01
2024-01-15T03:25:54.893Z,10.58
2024-01-15T03:26:57.449Z,10.53
2024-01-15T03:27:59.511Z,10.13
2024-01-15T03:29:01.515Z,9.99
2024-01-15T03:30:04.272Z,9.98
2024-01-15T03:31:07.750Z,10.55
2024-01-15T03:32:11.169Z,10.59
2024-01-15T03:33:13.156Z,10.03
2024-01-15T03:34:15.777Z,10.67
2024-01-15T03:35:17.778Z,10.47
2024-01-15T03:36:20.859Z,10.25
2024-01-15T03:37:22.914Z,10.31
2024-01-15T03:38:24.824Z,10.05
2024-01-15T03:39:26.974Z,10.21
2024-01-15T03:40:29.597Z,9.75
2024-01-15T03:41:31.619Z,10.19
2024-01-15T03:42:33.743Z,11.21
2024-01-15T03:43:35.877Z,10.84
2024-01-15T03:44:38.012Z,10.35
2024-01-15T03:45:40.064Z,10.77
2024-01-15T03:46:42.469Z,9.93
2024-01-15T03:47:44.480Z,11.09
2024-01-15T03:48:46.944Z,10.54
2024-01-15T03:49:49.256Z,11.17
2024-01-15T03:50:51.883Z,10.34
2024-01-15T03:51:54.965Z,10.19
2024-01-15T03:52:56.903Z,10.97
2024-01-15T03:53:58.799Z,11.29
2024-01-15T03:55:00.770Z,11.13
2024-01-15T03:56:03.185Z,10.75
2024-01-15T03:57:05.253Z,10.95
2024-01-15T03:58:07.351Z,9.79
2024-01-15T03:59:09.330Z,11.48
2024-01-15T04:00:14.938Z,11.46
2024-01-15T04:01:17.121Z,10.95
2024-01-15T04:02:19.159Z,10.71
2024-01-15T04:03:21.435Z,10.73
2024-01-15T04:04:23.725Z,11.52
2024-01-15T04:05:26.565Z,11.49
2024-01-15T04:06:29.339Z,11.74
2024-01-15T04:07:31.510Z,10.98
2024-01-15T04:08:33.414Z,10.15
2024-01-15T04:09:35.403Z,11.38
2024-01-15T04:10:37.826Z,11.09
2024-01-15T04:11:39.901Z,12.42
2024-01-15T04:12:42.312Z,11.57
2024-01-15T04:13:44.244Z,11.54
2024-01-15T04:14:46.262Z,11.49
2024-01-15T04:15:48.197Z,11.80
2024-01-15T04:16:50.633Z,11.47
2024-01-15T04:17:52.610Z,10.87
2024-01-15T04:18:54.628Z,10.83
2024-01-15T04:19:56.727Z,12.01
2024-01-15T04:20:59.184Z,12.36
2024-01-15T04:22:01.128Z,11.65
2024-01-15T04:23:03.265Z,12.60
2024-01-15T04:24:05.683Z,11.47
2024-01-15T04:25:07.898Z,12.27
2024-01-15T04:26:10.189Z,11.25
2024-01-15T04:27:15.151Z,10.31
2024-01-15T04:28:17.175Z,10.89
2024-01-15T04:29:19.192Z,11.39
2024-01-15T04:30:22.101Z,11.26
2024-01-15T04:31:25.864Z,11.12
2024-01-15T04:32:28.004Z,10.69
2024-01-15T04:33:30.210Z,10.07
2024-01-15T04:34:32.459Z,10.30
2024-01-15T04:35:34.795Z,10.99
2024-01-15T04:36:41.863Z,11.02
2024-01-15T04:37:44.031Z,10.27
2024-01-15T04:38:45.997Z,9.66
2024-01-15T04:39:48.054Z,10.34
2024-01-15T04:40:50.579Z,9.81
2024-01-15T04:41:52.616Z,10.63
2024-01-15T04:42:55.128Z,11.10
2024-01-15T04:43:57.123Z,10.27
2024-01-15T04:45:01.198Z,10.35
2024-01-15T04:46:05.437Z,11.22
2024-01-15T04:47:07.470Z,11.41
2024-01-15T04:48:09.626Z,11.25
2024-01-15T04:49:12.529Z,10.75
2024-01-15T04:50:15.968Z,11.66
2024-01-15T04:51:18.035Z,11.65
2024-01-15T04:52:20.133Z,11.91
2024-01-15T04:53:24.059Z,12.21
2024-01-15T04:54:26.092Z,11.85
2024-01-15T04:55:29.419Z,11.53
2024-01-15T04:56:32.130Z,11.81
2024-01-15T04:57:37.466Z,10.73
2024-01-15T04:58:39.680Z,12.13
2024-01-15T04:59:41.630Z,10.58
2024-01-15T05:00:44.177Z,10.72
2024-01-15T05:01:46.196Z,11.23
2024-01-15T05:02:48.354Z,10.25
2024-01-15T05:03:50.843Z,11.11
2024-01-15T05:04:53.082Z,10.77
2024-01-15T05:05:55.280Z,11.68
2024-01-15T05:06:57.782Z,10.78
2024-01-15T05:07:59.872Z,11.01
2024-01-15T05:09:01.959Z,11.05
2024-01-15T05:10:04.652Z,11.01
2024-01-15T05:11:10.184Z,10.89
2024-01-15T05:12:12.270Z,10.48
2024-01-15T05:13:16.246Z,11.41
2024-01-15T05:14:18.352Z,11.44
2024-01-15T05:15:20.380Z,10.65
2024-01-15T05:16:24.196Z,10.99
2024-01-15T05:17:26.123Z,11.67
2024-01-15T05:18:28.264Z,10.81
2024-01-15T05:19:30.530Z,10.32
2024-01-15T05:20:32.884Z,10.43
2024-01-15T05:21:34.996Z,10.34
2024-01-15T05:22:36.993Z,10.59
2024-01-15T05:23:38.984Z,10.22
2024-01-15T05:24:42.445Z,10.75
2024-01-15T05:25:44.467Z,11.40
2024-01-15T05:26:47.244Z,10.95
2024-01-15T05:27:49.222Z,10.39
2024-01-15T05:28:51.188Z,11.10
2024-01-15T05:29:53.184Z,10.76
2024-01-15T05:30:55.499Z,11.31
2024-01-15T05:32:01.290Z,10.40
2024-01-15T05:33:01.676Z,11.12
2024-01-15T05:34:03.956Z,10.93
2024-01-15T05:35:06.247Z,10.36
2024-01-15T05:36:08.846Z,10.62
2024-01-15T05:37:10.905Z,10.63
2024-01-15T05:38:13.065Z,9.99
2024-01-15T05:39:15.321Z,10.94
2024-01-15T05:40:17.829Z,11.18
2024-01-15T05:41:19.752Z,11.83
2024-01-15T05:42:21.808Z,10.85
2024-01-15T05:43:23.755Z,11.13
2024-01-15T05:44:25.728Z,11.05
2024-01-15T05:45:27.934Z,10.98
2024-01-15T05:46:29.977Z,11.03
2024-01-15T05:47:32.151Z,12.40
2024-01-15T05:48:34.453Z,11.49
2024-01-15T05:49:36.777Z,11.50
2024-01-15T05:50:39.193Z,11.40
2024-01-15T05:51:41.153Z,11.39
2024-01-15T05:52:43.124Z,11.03
2024-01-15T05:53:45.042Z,11.34
2024-01-15T05:54:47.156Z,10.60
2024-01-15T05:55:49.190Z,11.01
2024-01-15T05:56:51.264Z,10.52
2024-01-15T05:57:53.227Z,11.61
2024-01-15T05:58:55.131Z,11.57
2024-01-15T05:59:57.296Z,12.33
2024-01-15T06:00:59.781Z,12.73
2024-01-15T06:02:01.909Z,11.23
2024-01-15T06:03:06.072Z,12.61
2024-01-15T06:04:09.434Z,12.31
2024-01-15T06:05:11.636Z,12.67
2024-01-15T06:06:14.242Z,13.45
2024-01-15T06:07:16.565Z,12.47
2024-01-15T06:08:18.565Z,12.89
2024-01-15T06:09:20.569Z,13.43
2024-01-15T06:10:23.688Z,13.27
2024-01-15T06:11:30.594Z,13.81
2024-01-15T06:12:32.557Z,14.57
2024-01-15T06:13:35.008Z,12.41
2024-01-15T06:14:36.905Z,11.55
2024-01-15T06:15:40.283Z,12.01
2024-01-15T06:16:42.876Z,13.44
2024-01-15T06:17:47.133Z,12.17
2024-01-15T06:18:49.300Z,12.91
2024-01-15T06:19:51.585Z,12.39
2024-01-15T06:20:53.844Z,11.85
2024-01-15T06:21:56.480Z,12.63
2024-01-15T06:22:58.530Z,12.71
2024-01-15T06:24:00.462Z,12.59
2024-01-15T06:25:03.390Z,11.62
2024-01-15T06:26:05.593Z,13.22
2024-01-15T06:27:08.352Z,15.96
2024-01-15T06:28:11.815Z,15.81
2024-01-15T06:29:14.002Z,16.86
2024-01-15T06:30:18.214Z,15.71
2024-01-15T06:31:20.398Z,11.85
2024-01-15T06:32:22.418Z,12.25
2024-01-15T06:33:24.717Z,13.90
2024-01-15T06:34:26.818Z,13.99
2024-01-15T06:35:28.849Z,14.27
2024-01-15T06:36:31.948Z,15.21
2024-01-15T06:37:34.344Z,16.35
2024-01-15T06:38:36.301Z,14.35
2024-01-15T06:39:38.365Z,14.84
2024-01-15T06:40:40.497Z,15.91
2024-01-15T06:41:42.717Z,16.51
2024-01-15T06:42:44.753Z,15.16
2024-01-15T06:43:46.766Z,16.24
2024-01-15T06:44:48.646Z,14.30
2024-01-15T06:45:50.827Z,11.78
2024-01-15T06:46:53.381Z,11.84
2024-01-15T06:47:55.353Z,11.79
2024-01-15T06:48:57.431Z,9.97
2024-01-15T06:49:59.519Z,13.15
2024-01-15T06:51:01.606Z,14.85
2024-01-15T06:52:04.113Z,14.99
2024-01-15T06:53:06.246Z,12.80
2024-01-15T06:54:08.602Z,13.05
2024-01-15T06:55:10.585Z,14.34
2024-01-15T06:56:14.094Z,14.11
2024-01-15T06:57:16.125Z,12.88
2024-01-15T06:58:18.098Z,10.71
2024-01-15T06:59:20.692Z,12.27
2024-01-15T07:00:23.119Z,13.09
2024-01-15T07:01:25.433Z,15.05
2024-01-15T07:02:27.656Z,14.43
2024-01-15T07:03:29.791Z,18.14
2024-01-15T07:04:31.820Z,14.76
2024-01-15T07:05:36.018Z,12.48
2024-01-15T07:06:39.285Z,11.69
2024-01-15T07:07:41.486Z,12.30
2024-01-15T07:08:43.812Z,16.79
2024-01-15T07:09:45.848Z,16.34
2024-01-15T07:10:48.068Z,15.34
2024-01-15T07:11:50.125Z,13.51
2024-01-15T07:12:55.770Z,10.50
2024-01-15T07:14:00.365Z,11.81
2024-01-15T07:15:02.714Z,13.50
2024-01-15T07:16:05.443Z,11.75
2024-01-15T07:17:07.593Z,11.91
2024-01-15T07:18:09.622Z,13.37
2024-01-15T07:19:12.412Z,12.97
2024-01-15T07:20:16.863Z,13.94
2024-01-15T07:21:19.260Z,14.66
2024-01-15T07:22:22.528Z,13.50
2024-01-15T07:23:24.513Z,12.50
2024-01-15T07:24:26.528Z,10.82
2024-01-15T07:25:29.243Z,10.62
2024-01-15T07:26:31.778Z,10.67
2024-01-15T07:27:35.022Z,11.83
2024-01-15T07:28:37.228Z,12.64
2024-01-15T07:29:41.103Z,12.39
2024-01-15T07:30:48.055Z,12.71
2024-01-15T07:31:51.966Z,13.28
2024-01-15T07:32:54.451Z,13.29
2024-01-15T07:33:57.825Z,11.97
2024-01-15T07:35:01.610Z,13.19
2024-01-15T07:36:07.462Z,11.73
2024-01-15T07:37:09.527Z,11.98
2024-01-15T07:38:11.903Z,12.11
2024-01-15T07:39:14.086Z,12.70
2024-01-15T07:40:19.242Z,12.12
2024-01-15T07:41:21.304Z,11.73
2024-01-15T07:42:23.221Z,10.11
2024-01-15T07:43:26.652Z,13.39
2024-01-15T07:44:28.723Z,13.18
2024-01-15T07:45:32.240Z,12.49
2024-01-15T07:46:34.880Z,13.73
2024-01-15T07:47:37.072Z,12.89
2024-01-15T07:48:41.362Z,15.55
2024-01-15T07:49:44.604Z,14.68
2024-01-15T07:50:51.484Z,12.74
2024-01-15T07:51:53.624Z,12.28
2024-01-15T07:52:55.769Z,12.07
2024-01-15T07:53:58.110Z,10.49
2024-01-15T07:55:01.377Z,9.84
2024-01-15T07:56:05.416Z,10.41
2024-01-15T07:57:07.455Z,9.59
2024-01-15T07:58:15.918Z,11.09
2024-01-15T07:59:13.148Z,10.28
2024-01-15T08:00:17.995Z,10.36
2024-01-15T08:01:23.379Z,10.94
2024-01-15T08:02:26.323Z,11.02
2024-01-15T08:03:28.560Z,11.33
2024-01-15T08:04:30.890Z,11.36
2024-01-15T08:05:33.134Z,10.10
2024-01-15T08:06:36.922Z,11.53
2024-01-15T08:07:40.124Z,12.09
2024-01-15T08:08:42.049Z,12.14
2024-01-15T08:09:44.037Z,11.50
2024-01-15T08:10:47.490Z,11.15
2024-01-15T08:11:49.616Z,11.09
2024-01-15T08:12:51.615Z,11.03
2024-01-15T08:13:53.573Z,10.86
2024-01-15T08:14:55.618Z,12.31
2024-01-15T08:15:57.912Z,10.87
2024-01-15T08:17:00.449Z,10.76
2024-01-15T08:18:03.858Z,11.09
2024-01-15T08:19:06.111Z,10.46
2024-01-15T08:20:09.808Z,10.28
2024-01-15T08:21:11.963Z,11.16
2024-01-15T08:22:14.044Z,10.59
2024-01-15T08:23:15.983Z,9.34
2024-01-15T08:24:18.516Z,8.83
2024-01-15T08:25:22.629Z,9.94
2024-01-15T08:26:25.204Z,9.27
2024-01-15T08:27:27.237Z,10.47
2024-01-15T08:28:29.311Z,10.93
2024-01-15T08:29:31.245Z,12.08
2024-01-15T08:30:33.465Z,13.09
2024-01-15T08:31:37.498Z,11.39
2024-01-15T08:32:39.629Z,10.97
2024-01-15T08:33:41.690Z,10.99
2024-01-15T08:34:43.769Z,12.14
2024-01-15T08:35:45.803Z,11.19
2024-01-15T08:36:48.269Z,11.26
2024-01-15T08:37:52.698Z,11.95
2024-01-15T08:38:54.722Z,11.21
2024-01-15T08:39:56.883Z,11.71
2024-01-15T08:40:59.684Z,11.07
2024-01-15T08:42:02.889Z,11.53
2024-01-15T08:43:06.802Z,11.66
2024-01-15T08:44:08.812Z,11.89
2024-01-15T08:45:10.757Z,12.77
2024-01-15T08:46:14.233Z,12.89
2024-01-15T08:47:16.199Z,13.08
2024-01-15T08:48:18.293Z,13.42
2024-01-15T08:49:20.276Z,12.64
2024-01-15T08:50:22.907Z,12.79
2024-01-15T08:51:24.871Z,12.85
2024-01-15T08:52:28.213Z,10.87
2024-01-15T08:53:30.143Z,10.91
2024-01-15T08:54:32.100Z,12.27
2024-01-15T08:55:34.565Z,11.74
2024-01-15T08:56:39.527Z,10.85
2024-01-15T08:57:41.824Z,11.73
2024-01-15T08:58:44.477Z,12.07
2024-01-15T08:59:46.405Z,11.89
2024-01-15T09:00:49.007Z,10.22
2024-01-15T09:01:53.195Z,10.21
2024-01-15T09:02:55.816Z,9.98
2024-01-15T09:03:57.963Z,9.45
2024-01-15T09:05:00.057Z,10.36
2024-01-15T09:06:04.904Z,9.61
2024-01-15T09:07:09.247Z,9.49
2024-01-15T09:08:11.401Z,8.73
2024-01-15T09:09:14.393Z,9.89
2024-01-15T09:10:17.099Z,9.71
2024-01-15T09:11:22.436Z,8.66
2024-01-15T09:12:28.081Z,8.94
2024-01-15T09:13:30.133Z,8.34
2024-01-15T09:14:36.765Z,8.49
2024-01-15T09:15:36.199Z,10.16
2024-01-15T09:16:38.638Z,12.26
2024-01-15T09:17:40.660Z,10.06
2024-01-15T09:18:42.990Z,8.01
2024-01-15T09:19:45.233Z,7.78
2024-01-15T09:20:47.792Z,8.71
2024-01-15T09:21:49.921Z,9.44
2024-01-15T09:22:52.300Z,9.25
2024-01-15T09:23:54.332Z,7.96
2024-01-15T09:24:56.470Z,8.31
2024-01-15T09:25:58.706Z,8.53
2024-01-15T09:27:01.088Z,7.89
2024-01-15T09:28:03.543Z,8.30
2024-01-15T09:29:05.529Z,8.29
2024-01-15T09:30:08.484Z,8.66
2024-01-15T09:31:10.668Z,8.58
2024-01-15T09:32:13.268Z,9.64
2024-01-15T09:33:17.395Z,9.21
2024-01-15T09:34:19.601Z,9.35
2024-01-15T09:35:23.651Z,8.49
2024-01-15T09:36:27.272Z,9.22
2024-01-15T09:37:41.202Z,9.13
2024-01-15T09:38:33.175Z,9.26
2024-01-15T09:39:35.380Z,11.12
2024-01-15T09:40:43.172Z,14.57
2024-01-15T09:41:48.025Z,16.57
2024-01-15T09:42:54.329Z,14.31
2024-01-15T09:43:57.979Z,11.52
2024-01-15T09:45:00.778Z,12.55
2024-01-15T09:46:03.985Z,16.97
2024-01-15T09:47:08.118Z,14.54
2024-01-15T09:48:11.075Z,11.93
2024-01-15T09:49:14.563Z,9.54
2024-01-15T09:50:20.895Z,8.01
2024-01-15T09:51:25.485Z,8.62
2024-01-15T09:52:27.572Z,8.22
2024-01-15T09:53:30.766Z,10.67
2024-01-15T09:54:36.483Z,9.21
2024-01-15T09:55:38.524Z,8.88
2024-01-15T09:56:41.063Z,8.57
2024-01-15T09:57:44.863Z,9.06
2024-01-15T09:58:49.512Z,8.62
2024-01-15T09:59:54.846Z,8.41
2024-01-15T10:00:58.768Z,8.04
2024-01-15T10:02:03.236Z,7.28
2024-01-15T10:03:07.344Z,7.92
2024-01-15T10:04:10.103Z,7.97
2024-01-15T10:05:13.331Z,8.48
2024-01-15T10:06:19.556Z,7.88
2024-01-15T10:07:22.077Z,8.49
2024-01-15T10:08:24.105Z,8.53
2024-01-15T10:09:26.436Z,8.85
2024-01-15T10:10:29.863Z,8.41
2024-01-15T10:11:36.187Z,8.61
2024-01-15T10:12:42.080Z,7.82
2024-01-15T10:13:51.394Z,9.04
2024-01-15T10:14:53.907Z,8.03
2024-01-15T10:15:57.450Z,7.28
2024-01-15T10:17:00.498Z,7.67
2024-01-15T10:18:03.057Z,7.93
2024-01-15T10:19:05.376Z,9.35
2024-01-15T10:20:12.320Z,11.27
2024-01-15T10:21:15.641Z,10.73
2024-01-15T10:22:17.680Z,11.13
2024-01-15T10:23:19.676Z,9.73
2024-01-15T10:24:27.338Z,10.15
2024-01-15T10:25:30.454Z,9.62
2024-01-15T10:26:33.924Z,8.53
2024-01-15T10:27:37.249Z,9.99
2024-01-15T10:28:40.161Z,8.41
2024-01-15T10:29:44.479Z,8.35
2024-01-15T10:30:49.175Z,8.58
2024-01-15T10:31:52.564Z,8.67
2024-01-15T10:33:01.127Z,9.23
2024-01-15T10:34:12.228Z,9.05
2024-01-15T10:35:16.231Z,9.41
2024-01-15T10:36:21.697Z,8.42
2024-01-15T10:37:28.541Z,7.71
2024-01-15T10:38:29.334Z,8.51
2024-01-15T10:39:38.052Z,8.33
2024-01-15T10:40:43.721Z,8.31
2024-01-15T10:41:45.842Z,8.39
2024-01-15T10:42:52.500Z,8.37
2024-01-15T10:43:57.422Z,8.64
2024-01-15T10:45:00.254Z,8.09
2024-01-15T10:46:03.998Z,7.88
2024-01-15T10:47:06.975Z,8.96
2024-01-15T10:48:11.092Z,9.09
2024-01-15T10:49:13.502Z,10.58
2024-01-15T10:50:24.982Z,10.24
2024-01-15T10:51:27.348Z,11.88
2024-01-15T10:52:30.124Z,10.43
2024-01-15T10:53:33.521Z,9.87
2024-01-15T10:54:40.345Z,9.38
2024-01-15T10:55:44.327Z,10.26
2024-01-15T10:56:50.423Z,12.15
2024-01-15T10:57:54.362Z,10.02
2024-01-15T10:59:00.812Z,8.48
2024-01-15T11:00:03.922Z,8.67
2024-01-15T11:01:07.585Z,9.08
2024-01-15T11:02:10.346Z,10.29
2024-01-15T11:03:13.160Z,10.99
2024-01-15T11:04:15.904Z,11.71
2024-01-15T11:05:19.088Z,12.06
2024-01-15T11:06:24.776Z,9.74
2024-01-15T11:07:29.595Z,10.55
2024-01-15T11:08:32.243Z,12.50
2024-01-15T11:09:35.545Z,10.83
2024-01-15T11:10:46.086Z,10.08
2024-01-15T11:11:51.741Z,10.64
2024-01-15T11:12:53.690Z,8.35
2024-01-15T11:13:55.961Z,9.20
2024-01-15T11:15:05.568Z,8.26
2024-01-15T11:16:11.189Z,9.16
2024-01-15T11:17:14.949Z,7.66
2024-01-15T11:18:17.070Z,8.13
2024-01-15T11:19:19.405Z,8.23
2024-01-15T11:20:22.218Z,8.98
2024-01-15T11:21:27.862Z,8.67
2024-01-15T11:22:33.919Z,8.83
2024-01-15T11:23:57.004Z,9.41
2024-01-15T11:26:38.396Z,13.36
2024-01-15T11:27:43.499Z,12.17
2024-01-15T11:28:48.571Z,12.07
2024-01-15T11:29:54.300Z,9.93
2024-01-15T11:30:59.161Z,9.16
2024-01-15T11:32:07.398Z,9.31
2024-01-15T11:33:19.762Z,9.85
2024-01-15T11:34:24.361Z,9.24
2024-01-15T11:35:30.224Z,9.06
2024-01-15T11:36:55.922Z,8.48
2024-01-15T11:37:58.718Z,8.09
2024-01-15T11:39:00.842Z,9.28
2024-01-15T11:40:03.944Z,8.30
2024-01-15T11:41:09.866Z,8.42
2024-01-15T11:42:13.966Z,8.12
2024-01-15T11:43:16.300Z,10.37
2024-01-15T11:44:19.472Z,9.36
2024-01-15T11:45:23.165Z,10.18
2024-01-15T11:46:29.998Z,11.54
2024-01-15T11:47:57.958Z,12.59
2024-01-15T11:49:04.124Z,11.45
2024-01-15T11:50:07.914Z,9.41
2024-01-15T11:51:12.104Z,8.84
2024-01-15T11:52:17.721Z,7.11
2024-01-15T11:53:45.787Z,8.49
2024-01-15T11:55:02.969Z,9.48
2024-01-15T11:56:10.091Z,7.74
2024-01-15T11:57:16.431Z,7.59
2024-01-15T11:58:18.730Z,8.11
2024-01-15T11:59:20.708Z,7.84
2024-01-15T12:00:26.097Z,6.13
2024-01-15T12:01:29.648Z,8.13
2024-01-15T12:02:33.643Z,7.77
2024-01-15T12:03:35.943Z,8.23
2024-01-15T12:04:40.242Z,8.19
2024-01-15T12:05:43.434Z,9.03
2024-01-15T12:06:46.131Z,8.19
2024-01-15T12:07:50.127Z,8.13
2024-01-15T12:09:10.285Z,8.55
2024-01-15T12:10:17.605Z,8.42
2024-01-15T12:11:22.781Z,8.87
2024-01-15T12:12:30.372Z,8.27
2024-01-15T12:13:32.379Z,9.03
2024-01-15T12:14:34.353Z,7.99
2024-01-15T12:15:37.615Z,8.13
2024-01-15T12:16:39.847Z,8.17
2024-01-15T12:17:42.234Z,7.88
2024-01-15T12:18:45.657Z,8.47
2024-01-15T12:19:49.053Z,8.27
2024-01-15T12:20:55.003Z,9.15
2024-01-15T12:21:59.080Z,9.08
2024-01-15T12:23:04.171Z,9.18
2024-01-15T12:24:08.897Z,9.14
2024-01-15T12:25:11.036Z,8.57
2024-01-15T12:26:15.414Z,9.17
2024-01-15T12:27:17.847Z,9.10
2024-01-15T12:28:19.871Z,8.19
2024-01-15T12:29:21.797Z,9.31
2024-01-15T12:30:26.298Z,8.23
2024-01-15T12:31:30.412Z,9.12
2024-01-15T12:32:32.495Z,9.25
2024-01-15T12:33:36.803Z,8.70
2024-01-15T12:34:40.445Z,8.14
2024-01-15T12:35:42.449Z,9.69
2024-01-15T12:36:47.471Z,8.72
2024-01-15T12:37:51.867Z,8.67
2024-01-15T12:38:53.812Z,9.00
2024-01-15T12:39:55.821Z,8.47
2024-01-15T12:41:01.798Z,9.17
2024-01-15T12:42:04.944Z,8.69
2024-01-15T12:43:09.298Z,8.78
2024-01-15T12:44:11.951Z,10.05
2024-01-15T12:45:17.068Z,9.04
2024-01-15T12:46:19.808Z,9.88
2024-01-15T12:47:22.088Z,9.44
2024-01-15T12:48:24.739Z,10.71
2024-01-15T12:49:26.933Z,10.37
2024-01-15T12:50:30.072Z,11.29
2024-01-15T12:51:36.038Z,10.82
2024-01-15T12:52:42.435Z,11.71
2024-01-15T12:53:44.581Z,11.02
2024-01-15T12:54:46.710Z,9.20
2024-01-15T12:55:48.767Z,10.02
2024-01-15T12:56:54.733Z,9.39
2024-01-15T12:57:57.046Z,9.87
2024-01-15T12:58:59.125Z,10.13
2024-01-15T13:00:04.935Z,11.40
2024-01-15T13:01:07.035Z,9.88
2024-01-15T13:02:09.276Z,10.99
2024-01-15T13:03:17.324Z,9.66
2024-01-15T13:04:26.337Z,9.63
2024-01-15T13:05:30.469Z,9.88
2024-01-15T13:06:32.988Z,10.58
2024-01-15T13:07:35.909Z,10.21
2024-01-15T13:08:39.809Z,11.25
2024-01-15T13:09:41.962Z,10.05
2024-01-15T13:10:44.700Z,10.53
2024-01-15T13:11:50.797Z,10.87
2024-01-15T13:12:53.809Z,10.86
2024-01-15T13:13:56.461Z,10.58
2024-01-15T13:15:00.602Z,10.21
2024-01-15T13:16:04.392Z,10.49
2024-01-15T13:17:07.604Z,10.89
2024-01-15T13:18:12.449Z,10.74
2024-01-15T13:19:15.854Z,11.82
2024-01-15T13:20:19.985Z,10.23
2024-01-15T13:21:23.354Z,11.98
2024-01-15T13:22:25.969Z,11.18
2024-01-15T13:23:28.109Z,10.36
2024-01-15T13:24:30.180Z,10.51
2024-01-15T13:25:32.573Z,10.21
2024-01-15T13:26:36.252Z,10.36
2024-01-15T13:27:40.226Z,10.75
2024-01-15T13:28:42.590Z,10.82
2024-01-15T13:29:44.489Z,12.61
2024-01-15T13:30:46.819Z,10.59
2024-01-15T13:31:52.240Z,10.37
2024-01-15T13:32:54.833Z,11.29
2024-01-15T13:33:57.405Z,10.25
2024-01-15T13:35:00.859Z,11.77
2024-01-15T13:36:05.098Z,11.06
2024-01-15T13:37:07.210Z,10.04
2024-01-15T13:38:09.228Z,10.35
2024-01-15T13:39:11.454Z,10.59
2024-01-15T13:40:14.801Z,12.60
2024-01-15T13:41:17.743Z,10.71